NCAR-RAP Real-Time Weather Data

Output produced by METARs form (08 May 2021  16:47 UTC)
found at http://weather.rap.ucar.edu/surface/
 
KDTW 081553Z 32010KT 280V340 10SM FEW030 11/00 A3007 RMK AO2 SLP186 T01060000
KDTW 081453Z 31012G19KT 10SM FEW020 09/01 A3007 RMK AO2 SLP186 T00940006 51010
KDTW 081353Z 31009KT 10SM FEW020 07/01 A3006 RMK AO2 SLP184 T00720006
KDTW 081253Z 34010KT 10SM SCT020 06/01 A3006 RMK AO2 SLP181 T00560006
KDTW 081153Z 34011KT 10SM SCT020 05/01 A3004 RMK AO2 SLP175 70033 T00500006 10050 20039 53018
KDTW 081138Z 32012G19KT 10SM SCT022 05/01 A3003 RMK AO2 T00500006
KDTW 081053Z 33008KT 10SM BKN022 04/01 A3002 RMK AO2 SLP168 T00440006
KDTW 080953Z 34009KT 10SM SCT018 BKN022 04/01 A3000 RMK AO2 SLP162 T00390006
KDTW 080853Z 35012KT 10SM SCT016 BKN022 OVC035 04/02 A2999 RMK AO2 SLP157 T00440017 53006
KDTW 080753Z 31007KT 10SM SCT020 BKN028 04/01 A2998 RMK AO2 SLP153 T00440011
KDTW 080653Z 32008KT 10SM FEW022 BKN025 04/01 A2997 RMK AO2 SLP150 T00440011
KDTW 080553Z 35009G16KT 10SM BKN025 BKN030 04/01 A2997 RMK AO2 SLP150 60003 T00440006 10089 20039 53008
KDTW 080542Z 34007KT 10SM BKN025 BKN030 04/01 A2997 RMK AO2 T00440011
KDTW 080453Z 34009G17KT 10SM FEW020 SCT030 04/01 A2996 RMK AO2 SLP148 T00440011 401390044
KDTW 080437Z 34012KT 10SM FEW015 SCT025 BKN030 04/01 A2996 RMK AO2 T00440011
KDTW 080353Z 35006KT 10SM BKN015 OVC025 07/04 A2994 RMK AO2 SLP142 T00670039
KDTW 080300Z 34005KT 10SM BKN025 BKN030 OVC045 07/04 A2994 RMK AO2 T00670044
KDTW 080253Z 33005KT 10SM SCT025 OVC035 06/04 A2994 RMK AO2 RAB09E40 TSB17E40 SLP141 TS MOV SE P0003 60003 T00610039 53016
KDTW 080240Z 35006KT 10SM BKN035 BKN050 OVC065 07/04 A2994 RMK AO2 LTG DSNT SW RAB09E40 TSB17E40 TS MOV SE P0003 T00670039
KDTW 080217Z 32009KT 5SM -TSRA BKN035CB BKN050 OVC065 07/04 A2994 RMK AO2 RAB09 TSB17 OCNL LTGIC S-W TS S-W MOV SE P0000 T00720044
KDTW 080153Z 03007KT 8SM BKN035 BKN050 OVC065 07/05 A2992 RMK AO2 RAB0059E38 SLP135 OCNL LTGIC DSNT W-NW CB DSNT W-NW MOV SE P0000 T00720050
KDTW 080053Z 07011KT 8SM FEW040 BKN050 BKN070 08/06 A2990 RMK AO2 SLP127 T00830056
KDTW 072353Z VRB04KT 9SM FEW030 SCT050 BKN075 09/05 A2989 RMK AO2 LTG DSNT S SLP125 CB DSNT SE-S MOV E 60030 T00890050 10139 20083 56002
KDTW 072253Z 08004KT 8SM FEW030 SCT045 BKN065 10/06 A2989 RMK AO2 LTG DSNT SE AND S SLP125 T01000061
KDTW 072153Z 06006KT 9SM BKN030 BKN045 OVC055 10/07 A2989 RMK AO2 LTG DSNT N RAE18B34E52 TSE18 SLP124 TS MOV E CB DSNT NE MOV E P0008 T01000072
KDTW 072118Z 13008G20KT 10SM BKN030 BKN045 OVC055 09/06 A2989 RMK AO2 LTG DSNT N RAE18 TSE18 TS MOV E CB DSNT SE MOV E P0006 T00890056
KDTW 072053Z 13004KT 3SM -TSRA BKN030 BKN045CB OVC060 08/04 A2990 RMK AO2 RAB16GRB41E51 TSB10 SLP127 OCNL LTGICCG SE-S TS SE-S MOV E P0020 60022 T00830044 55009
KDTW 072048Z 10003KT 3SM -TSRAGR BKN030 BKN045CB OVC060 09/04 A2989 RMK AO2 RAB16GRB41 TSB10 OCNL LTGICCG SE-S TS SE-S MOV E GR 1/4 P0003
KDTW 072041Z COR 15005KT 7SM -TSRAGR FEW030 BKN045CB OVC060 10/05 A2990 RMK AO2 RAB16GRB41 TSB10 OCNL LTGIC NE AND S TS NE AND S MOV E GR 1/4 P0001 T01000050
KDTW 072010Z VRB06KT 9SM TS SCT040CB BKN060 BKN100 11/04 A2989 RMK AO2 TSB10 OCNL LTGIC N-NE TS N-NE MOV E T01060044
KDTW 071953Z 10007KT 10SM FEW020 BKN045 BKN070 11/06 A2989 RMK AO2 LTG DSNT E RAE1856B33E48 SLP126 CB DSNT NW-N MOV E P0000 T01110056
KDTW 071919Z VRB03KT 10SM BKN045 BKN070 12/06 A2991 RMK AO2 RAE1856 CB DSNT NE-SE MOV E P0000 T01220056
KDTW 071853Z 18007KT 5SM VCTS -RA BKN035 OVC060 09/03 A2991 RMK AO2 PK WND 28034/1835 WSHFT 1819 LTG DSNT NW RAB26 TSB16 SLP131 TS MOV NE P0002 T00890033
KDTW 071839Z 27022G34KT 3SM -TSRA BKN040CB OVC075 09/04 A2994 RMK AO2 PK WND 28034/1835 WSHFT 1819 LTG DSNT N AND SW RAB26 TSB16 PRESRR OCNL LTGIC W-N TS W-N MOV E P0001 T00940039
KDTW 071818Z 19013G17KT 8SM TS BKN040CB OVC075 13/02 A2991 RMK AO2 LTG DSNT NW TSB16 OCNL LTGIC W-N TS W-N MOV E T01280022
KDTW 071753Z VRB04KT 10SM BKN050 BKN110 13/02 A2992 RMK AO2 LTG DSNT W AND NW SLP134 T01280022 10133 20067 58021
KDTW 071653Z 20006G16KT 10SM SCT050 BKN140 BKN220 12/01 A2995 RMK AO2 SLP145 T01220006
KDTW 071553Z VRB04KT 10SM SCT035 SCT200 11/02 A2997 RMK AO2 SLP151 T01110022
KDTW 071453Z 00000KT 10SM SCT025 11/04 A2998 RMK AO2 SLP156 T01060039 58003
KDTW 071353Z 28004KT 8SM SCT018 09/03 A2999 RMK AO2 SLP158 T00890033
KDTW 071253Z 00000KT 8SM SCT014 SCT035 08/04 A2999 RMK AO2 SLP160 T00830044
KDTW 071153Z 34006KT 6SM HZ FEW010 FEW035 SCT200 07/04 A2999 RMK AO2 SLP159 60000 70009 T00720044 10072 20056 53005
KDTW 071053Z 32004KT 8SM SCT026 BKN045 OVC200 06/04 A2999 RMK AO2 SLP157 T00560039
KDTW 071025Z 32004KT 8SM SCT026 OVC045 06/04 A2998 RMK AO2 T00560039
KDTW 070953Z 34004KT 8SM FEW008 BKN026 OVC045 06/04 A2998 RMK AO2 SLP154 T00610039
KDTW 070853Z 34004KT 7SM SCT008 BKN026 OVC045 06/04 A2998 RMK AO2 SLP155 60000 T00610039 56007
KDTW 070753Z 36004KT 7SM FEW008 BKN025 OVC045 06/04 A2998 RMK AO2 RAE06 SLP153 P0000 T00560044
KDTW 070711Z 36004KT 8SM SCT008 OVC025 06/04 A2998 RMK AO2 RAE06 P0000 T00560044
KDTW 070653Z 36004KT 6SM -RA BR BKN006 OVC027 06/04 A2998 RMK AO2 SLP155 P0000 T00560044
KDTW 070610Z 02008KT 4SM -RA BR BKN006 OVC027 06/04 A2999 RMK AO2 P0000 T00560044
KDTW 070534Z 02007KT 5SM -RA BR SCT006 OVC025 06/04 A3000 RMK AO2 P0000 T00610044
KDTW 070505Z 01008KT 4SM -RA BR BKN007 OVC027 06/04 A3001 RMK AO2 P0000 T00610044
KDTW 070453Z 01008KT 6SM -RA BR SCT008 OVC025 06/05 A3001 RMK AO2 RAB53 SLP164 P0000 T00610050 401330044
KDTW 070425Z 01007KT 8SM SCT008 OVC025 06/05 A3001 RMK AO2 T00610050
KDTW 070353Z 02006KT 8SM FEW015 BKN030 OVC045 06/05 A3002 RMK AO2 RAE07 SLP166 P0000 T00610050
KDTW 070314Z 05005KT 10SM FEW015 BKN030 OVC045 07/05 A3002 RMK AO2 RAE07 P0000 T00670050
KDTW 070253Z 34004KT 7SM -RA SCT015 OVC025 07/05 A3003 RMK AO2 RAB23 SLP172 P0000 60001 T00670050 53003
KDTW 070200Z 00000KT 10SM BKN020 OVC028 07/04 A3003 RMK AO2 T00720044
KDTW 070153Z 07003KT 10SM SCT020 OVC030 07/04 A3003 RMK AO2 RAE09 SLP170 P0000 T00720044
KDTW 070111Z 08003KT 10SM SCT020 OVC030 07/04 A3002 RMK AO2 RAE09 P0000 T00720044
KDTW 070053Z 09004KT 6SM -RA OVC021 07/04 A3002 RMK AO2 SLP168 P0001 T00720044
KDTW 062353Z 07003KT 5SM -RA BKN023 OVC030 08/04 A3002 RMK AO2 RAE08B32 SLP170 P0001 60008 T00780044 10128 20078 56007
KDTW 062253Z 09003KT 5SM -RA BKN024 OVC030 08/04 A3003 RMK AO2 SLP172 P0000 T00830044
KDTW 062217Z 07006KT 6SM -RA OVC028 08/04 A3004 RMK AO2 P0000 T00830044
KDTW 062153Z 09005KT 4SM -RA OVC031 08/04 A3004 RMK AO2 SLP175 P0004 T00830044
KDTW 062053Z 08004KT 5SM -RA OVC038 09/03 A3005 RMK AO2 RAB02 SLP177 P0003 60003 T00890028 55013
KDTW 061953Z VRB03KT 10SM SCT030 OVC060 12/M02 A3004 RMK AO2 SLP176 T01221022
KDTW 061853Z 17003KT 10SM SCT045 OVC070 12/M05 A3006 RMK AO2 SLP180 T01221050
KDTW 061753Z 13006KT 10SM FEW040 OVC070 12/M02 A3008 RMK AO2 SLP189 T01221017 10133 20072 58014
KDTW 061653Z VRB04KT 10SM FEW040 BKN070 OVC090 13/M01 A3011 RMK AO2 SLP197 T01281011